Time;durP1;ratioP1;P1;durP2;ratioP2;P2;SDS_P1;SDS_P2;PMS_P1;PMS_P2;Temp;Humidity;BMP_temperature;BMP_pressure;BME280_temperature;BME280_humidity;BME280_pressure;Samples;Min_cycle;Max_cycle;Signal;HPM_P1;HPM_P2
2022/09/02 00:01:12;;;;;;;3.65;1.40;;;;;;;16.71;52.73;101594.16;5103442;28;20363;-68
2022/09/02 00:03:37;;;;;;;2.47;0.93;;;;;;;16.65;53.41;101595.16;5102171;28;20028;-69
2022/09/02 00:06:04;;;;;;;3.58;1.20;;;;;;;16.64;53.45;101592.63;5099127;27;20043;-69
2022/09/02 00:08:30;;;;;;;2.85;1.50;;;;;;;16.59;53.37;101596.16;5083334;28;20470;-69
2022/09/02 00:10:57;;;;;;;3.20;1.33;;;;;;;16.56;53.82;101591.13;5087706;28;20040;-69
2022/09/02 00:13:23;;;;;;;3.97;1.38;;;;;;;16.51;53.92;101593.81;5084138;28;20051;-68
2022/09/02 00:15:49;;;;;;;4.10;1.23;;;;;;;16.51;53.79;101589.09;5100731;28;20429;-68
2022/09/02 00:18:16;;;;;;;3.70;1.15;;;;;;;16.46;53.67;101594.56;5103200;28;20058;-69
2022/09/02 00:20:44;;;;;;;4.45;1.27;;;;;;;16.42;54.04;101585.06;5090178;28;20116;-69
2022/09/02 00:23:10;;;;;;;2.95;1.10;;;;;;;16.43;54.22;101589.53;5083185;28;20081;-69
2022/09/02 00:25:37;;;;;;;4.03;1.45;;;;;;;16.41;53.97;101577.84;5097747;28;20051;-69
2022/09/02 00:28:03;;;;;;;2.85;1.27;;;;;;;16.39;54.29;101581.97;5101949;28;20038;-68
2022/09/02 00:30:29;;;;;;;5.35;1.40;;;;;;;16.32;54.52;101582.09;5098072;28;20355;-69
2022/09/02 00:32:54;;;;;;;4.18;1.48;;;;;;;16.28;54.77;101579.03;5102604;28;20035;-68
2022/09/02 00:35:20;;;;;;;3.58;1.40;;;;;;;16.27;54.64;101576.47;5102521;28;20085;-69
2022/09/02 00:37:45;;;;;;;4.18;1.45;;;;;;;16.19;54.71;101579.69;5085339;28;20016;-68
2022/09/02 00:40:11;;;;;;;3.58;1.40;;;;;;;16.18;54.67;101576.06;5083375;28;20106;-69
2022/09/02 00:42:37;;;;;;;2.35;1.38;;;;;;;16.14;54.75;101579.59;5090373;28;20084;-69
2022/09/02 00:45:05;;;;;;;5.95;1.40;;;;;;;16.13;55.00;101575.97;5103146;28;20023;-69
2022/09/02 00:47:31;;;;;;;3.75;1.30;;;;;;;16.12;55.04;101573.44;5100310;28;20717;-69
2022/09/02 00:49:57;;;;;;;5.00;1.60;;;;;;;16.09;55.10;101575.63;5102845;28;20016;-69
2022/09/02 00:52:49;;;;;;;5.43;1.42;;;;;;;16.09;55.08;101569.25;5100095;28;20718;-69
2022/09/02 00:55:21;;;;;;;2.40;1.38;;;;;;;16.02;55.32;101563.88;5092559;28;20024;-69
2022/09/02 00:57:50;;;;;;;4.32;1.50;;;;;;;15.99;55.72;101558.81;5102854;28;20552;-68
2022/09/02 01:00:23;;;;;;;3.60;1.25;;;;;;;15.90;55.72;101563.09;5104147;28;20527;-68
2022/09/02 01:02:55;;;;;;;4.43;1.58;;;;;;;15.90;55.81;101563.09;5037073;22;20458;-69
2022/09/02 01:05:23;;;;;;;5.10;1.48;;;;;;;15.87;56.05;101560.00;5016098;28;20391;-67
2022/09/02 01:07:50;;;;;;;4.43;1.38;;;;;;;15.87;55.77;101560.00;5017795;28;20025;-68
2022/09/02 01:10:29;;;;;;;4.65;1.60;;;;;;;15.79;56.01;101561.22;5023129;28;20041;-68
2022/09/02 01:12:57;;;;;;;2.65;1.40;;;;;;;15.75;55.94;101557.25;5015272;28;20026;-68
2022/09/02 01:15:23;;;;;;;2.80;1.27;;;;;;;15.73;56.57;101554.75;5005635;28;20033;-68
2022/09/02 01:17:50;;;;;;;5.57;1.60;;;;;;;15.74;56.56;101561.13;5001553;28;20034;-68
2022/09/02 01:20:21;;;;;;;4.43;1.60;;;;;;;15.64;56.79;101555.38;5019186;28;20061;-68
2022/09/02 01:22:47;;;;;;;4.93;1.55;;;;;;;15.58;56.84;101558.03;5020078;28;20018;-68
2022/09/02 01:25:18;;;;;;;5.57;1.70;;;;;;;15.56;57.34;101560.22;5011061;28;20034;-68
2022/09/02 01:27:43;;;;;;;2.95;1.60;;;;;;;15.54;57.25;101551.28;5002513;28;20527;-68
2022/09/02 01:30:13;;;;;;;5.15;1.70;;;;;;;15.49;57.46;101559.50;5003203;28;20059;-68
2022/09/02 01:32:39;;;;;;;4.82;1.83;;;;;;;15.44;57.09;101559.41;5003345;28;20033;-68
2022/09/02 01:35:05;;;;;;;3.22;1.65;;;;;;;15.40;57.54;101549.88;5002279;28;20022;-68
2022/09/02 01:37:31;;;;;;;6.50;1.85;;;;;;;15.41;57.29;101547.97;5001045;28;20045;-68
2022/09/02 01:39:57;;;;;;;5.55;1.80;;;;;;;15.39;57.95;101552.91;5014061;28;20025;-70
2022/09/02 01:42:24;;;;;;;3.05;1.80;;;;;;;15.38;57.98;101556.78;5018566;28;20080;-68
2022/09/02 01:44:49;;;;;;;4.47;1.88;;;;;;;15.32;57.91;101553.91;5017974;28;20488;-69
2022/09/02 01:47:25;;;;;;;2.97;1.55;;;;;;;15.31;57.59;101549.47;5001919;28;20038;-68
2022/09/02 01:49:51;;;;;;;2.90;1.50;;;;;;;15.29;58.01;101539.69;5015197;28;20026;-68
2022/09/02 01:52:17;;;;;;;3.72;1.55;;;;;;;15.22;58.08;101539.00;5022298;28;20112;-69
2022/09/02 01:54:43;;;;;;;3.53;1.65;;;;;;;15.29;58.13;101545.25;5021427;28;20110;-69
2022/09/02 01:57:09;;;;;;;4.25;1.77;;;;;;;15.14;58.28;101540.22;5003785;28;20041;-68
2022/09/02 01:59:34;;;;;;;3.67;1.60;;;;;;;15.10;58.76;101546.47;5006983;28;20029;-68
2022/09/02 02:02:00;;;;;;;3.13;1.52;;;;;;;15.08;58.44;101534.84;5005626;28;20408;-68
2022/09/02 02:04:26;;;;;;;5.80;1.92;;;;;;;15.05;58.79;101539.78;5026187;28;20123;-68
2022/09/02 02:06:51;;;;;;;3.42;1.80;;;;;;;15.03;59.01;101539.16;5011133;28;20418;-68
2022/09/02 02:09:18;;;;;;;4.22;1.70;;;;;;;15.01;58.93;101538.59;5024592;28;20029;-70
2022/09/02 02:11:44;;;;;;;5.63;1.80;;;;;;;15.01;58.69;101541.34;5023953;28;20547;-68
2022/09/02 02:14:10;;;;;;;3.28;1.75;;;;;;;15.00;59.06;101534.13;5025892;28;20118;-68
2022/09/02 02:16:36;;;;;;;4.95;1.98;;;;;;;15.02;58.96;101537.50;5003425;28;20018;-68
2022/09/02 02:19:02;;;;;;;4.10;1.70;;;;;;;14.99;59.04;101537.13;5005385;28;20035;-68
2022/09/02 02:21:28;;;;;;;4.32;1.60;;;;;;;15.00;59.19;101538.81;5017726;28;20104;-68
2022/09/02 02:23:53;;;;;;;5.28;2.00;;;;;;;14.99;59.08;101535.19;5025153;28;20033;-68
2022/09/02 02:26:19;;;;;;;3.95;1.80;;;;;;;14.99;59.33;101532.44;5019521;28;20826;-68
2022/09/02 02:28:44;;;;;;;4.72;2.20;;;;;;;15.00;58.77;101525.84;5004957;28;20550;-68
2022/09/02 02:31:09;;;;;;;4.03;1.60;;;;;;;15.03;58.59;101532.78;5005487;28;20943;-68
2022/09/02 02:33:37;;;;;;;5.10;1.60;;;;;;;15.07;58.93;101528.47;5016571;28;20032;-68
2022/09/02 02:36:04;;;;;;;4.00;1.53;;;;;;;15.07;59.06;101527.63;5023495;28;20061;-68
2022/09/02 02:38:31;;;;;;;4.95;1.80;;;;;;;15.08;58.85;101523.78;5021393;28;20034;-68
2022/09/02 02:40:56;;;;;;;4.28;1.70;;;;;;;15.10;58.81;101524.34;5023124;28;20049;-68
2022/09/02 02:43:23;;;;;;;3.97;1.98;;;;;;;15.10;58.37;101532.66;5017545;28;21159;-68
2022/09/02 02:45:49;;;;;;;4.57;1.60;;;;;;;15.08;58.75;101527.38;5006446;28;20026;-68
2022/09/02 02:48:14;;;;;;;3.58;1.70;;;;;;;15.07;58.56;101524.84;5005148;28;20388;-68
2022/09/02 02:50:40;;;;;;;4.75;1.88;;;;;;;15.09;58.67;101525.44;5004908;28;20252;-68
2022/09/02 02:53:06;;;;;;;3.58;1.75;;;;;;;15.05;58.60;101517.66;5012170;28;20037;-68
2022/09/02 02:55:31;;;;;;;5.32;1.70;;;;;;;15.02;58.98;101523.66;5018355;28;20048;-68
2022/09/02 02:57:56;;;;;;;4.05;1.60;;;;;;;15.06;58.27;101518.50;5016509;28;20108;-68
2022/09/02 03:00:26;;;;;;;2.67;1.65;;;;;;;15.05;58.43;101525.94;5005376;28;20472;-68
2022/09/02 03:02:56;;;;;;;3.40;1.80;;;;;;;14.99;59.05;101521.38;5014206;28;20132;-67
2022/09/02 03:05:22;;;;;;;5.80;1.90;;;;;;;15.00;58.50;101512.00;5011814;28;20021;-68
2022/09/02 03:07:47;;;;;;;3.17;1.60;;;;;;;14.99;58.90;101507.53;5005164;28;20445;-67
2022/09/02 03:10:13;;;;;;;3.38;1.88;;;;;;;15.00;59.21;101517.53;5005167;28;20647;-68
2022/09/02 03:12:40;;;;;;;3.33;1.70;;;;;;;15.00;59.18;101513.91;5015171;28;20029;-68
2022/09/02 03:15:07;;;;;;;4.15;1.83;;;;;;;15.00;59.13;101513.91;5004761;28;20037;-68
2022/09/02 03:17:33;;;;;;;4.00;2.03;;;;;;;14.94;58.93;101512.97;4998331;28;20042;-68
2022/09/02 03:19:58;;;;;;;3.33;1.60;;;;;;;14.92;59.05;101514.31;4998405;28;20053;-68
2022/09/02 03:22:25;;;;;;;5.63;1.80;;;;;;;14.91;58.99;101516.22;5001673;28;20021;-68
2022/09/02 03:24:51;;;;;;;3.83;2.05;;;;;;;14.89;59.34;101518.38;5024559;28;20027;-68
2022/09/02 03:27:16;;;;;;;4.97;1.80;;;;;;;14.89;59.58;101510.09;5009026;28;20037;-68
2022/09/02 03:29:43;;;;;;;4.47;1.70;;;;;;;14.86;59.15;101513.34;5012600;28;20474;-68
2022/09/02 03:32:08;;;;;;;5.65;2.10;;;;;;;14.88;59.52;101507.56;5022319;28;20120;-68
2022/09/02 03:34:33;;;;;;;4.53;1.90;;;;;;;14.85;59.22;101511.69;5017424;28;20120;-68
2022/09/02 03:36:59;;;;;;;4.30;1.80;;;;;;;14.83;59.47;101510.22;5003795;28;20132;-68
2022/09/02 03:39:24;;;;;;;4.72;2.10;;;;;;;14.80;59.63;101511.56;5004576;28;20947;-68
2022/09/02 03:41:50;;;;;;;4.45;1.70;;;;;;;14.81;59.80;101501.34;5010775;28;20029;-68
2022/09/02 03:44:15;;;;;;;3.00;1.70;;;;;;;14.74;60.04;101502.28;5011566;28;20021;-68
2022/09/02 03:46:41;;;;;;;6.95;1.80;;;;;;;14.71;59.95;101501.94;5002638;28;20028;-68
2022/09/02 03:49:06;;;;;;;5.63;2.28;;;;;;;14.71;59.92;101497.25;5003822;28;20048;-68
2022/09/02 03:51:32;;;;;;;4.55;1.88;;;;;;;14.70;60.21;101500.25;5003641;28;20076;-67
2022/09/02 03:53:58;;;;;;;3.65;1.60;;;;;;;14.71;60.12;101497.25;5007528;28;20076;-68
2022/09/02 03:56:24;;;;;;;4.07;1.80;;;;;;;14.68;60.03;101500.50;5006740;28;20032;-67
2022/09/02 03:58:51;;;;;;;4.18;1.90;;;;;;;14.68;60.28;101492.22;5019907;28;20096;-67
2022/09/02 04:01:22;;;;;;;5.97;1.92;;;;;;;14.68;60.25;101496.91;5009121;28;20080;-67
2022/09/02 04:03:48;;;;;;;3.35;1.92;;;;;;;14.70;60.30;101494.72;5003634;28;20065;-67
2022/09/02 04:06:15;;;;;;;4.07;1.92;;;;;;;14.70;60.18;101489.19;5004398;28;20064;-68
2022/09/02 04:08:43;;;;;;;5.35;2.22;;;;;;;14.70;60.09;101490.06;5003703;28;20030;-68
2022/09/02 04:11:11;;;;;;;5.75;2.30;;;;;;;14.68;60.51;101488.59;5009604;28;20037;-68
2022/09/02 04:13:37;;;;;;;5.38;1.85;;;;;;;14.64;60.78;101492.94;5013869;28;20059;-68
2022/09/02 04:16:12;;;;;;;3.70;1.92;;;;;;;14.67;60.37;101489.69;5010730;28;20026;-67
2022/09/02 04:18:37;;;;;;;5.65;2.17;;;;;;;14.68;60.44;101485.84;5007684;28;20036;-68
2022/09/02 04:21:03;;;;;;;3.45;1.85;;;;;;;14.67;60.38;101481.41;5019656;28;20447;-68
2022/09/02 04:23:29;;;;;;;4.90;2.08;;;;;;;14.65;60.75;101480.78;5020809;28;20714;-68
2022/09/02 04:25:54;;;;;;;2.65;1.90;;;;;;;14.65;60.64;101481.66;5004078;28;20037;-68
2022/09/02 04:28:20;;;;;;;4.88;2.17;;;;;;;14.66;60.59;101477.78;5004573;28;20385;-68
2022/09/02 04:30:46;;;;;;;4.97;2.08;;;;;;;14.68;60.43;101481.16;5005072;28;20030;-68
2022/09/02 04:33:12;;;;;;;5.85;2.05;;;;;;;14.70;60.57;101478.13;4983579;28;20038;-67
2022/09/02 04:35:46;;;;;;;3.83;1.90;;;;;;;14.70;60.44;101478.13;4990187;28;20113;-67
2022/09/02 04:38:12;;;;;;;6.38;1.95;;;;;;;14.69;60.67;101471.75;5009681;28;20041;-67
2022/09/02 04:40:42;;;;;;;3.08;1.77;;;;;;;14.72;60.61;101471.28;5018344;28;20083;-68
2022/09/02 04:43:07;;;;;;;5.30;1.90;;;;;;;14.74;60.38;101469.09;5022038;28;20043;-67
2022/09/02 04:45:32;;;;;;;5.05;1.88;;;;;;;14.69;60.60;101470.91;5000974;28;20026;-67
2022/09/02 04:47:58;;;;;;;4.63;1.92;;;;;;;14.69;60.38;101466.22;5010946;28;20048;-68
2022/09/02 04:50:23;;;;;;;6.05;2.17;;;;;;;14.69;60.89;101474.53;5022612;28;20028;-68
2022/09/02 04:52:49;;;;;;;4.90;2.00;;;;;;;14.69;60.50;101477.28;5013231;28;20029;-68
2022/09/02 04:55:15;;;;;;;4.65;2.08;;;;;;;14.71;60.80;101475.13;5020128;28;20040;-68
2022/09/02 04:57:40;;;;;;;3.97;2.03;;;;;;;14.68;61.05;101477.53;5005996;28;20030;-68
2022/09/02 05:00:07;;;;;;;6.00;2.20;;;;;;;14.69;60.99;101476.44;5002985;28;20359;-68
2022/09/02 05:02:33;;;;;;;4.93;1.90;;;;;;;14.66;61.02;101471.44;5000162;28;20111;-68
2022/09/02 05:04:58;;;;;;;3.75;2.00;;;;;;;14.65;61.32;101469.72;5005135;28;20025;-68
2022/09/02 05:07:23;;;;;;;5.28;2.22;;;;;;;14.67;60.88;101473.09;5004646;28;20603;-68
2022/09/02 05:09:48;;;;;;;5.00;2.13;;;;;;;14.65;61.41;101476.13;5001389;28;20026;-68
2022/09/02 05:12:14;;;;;;;3.55;2.03;;;;;;;14.66;61.38;101477.78;5002141;28;20503;-68
2022/09/02 05:14:40;;;;;;;6.53;2.10;;;;;;;14.71;61.31;101479.84;5002343;28;20045;-68
2022/09/02 05:17:05;;;;;;;5.95;2.17;;;;;;;14.68;61.45;101474.78;5000525;28;20088;-68
2022/09/02 05:19:31;;;;;;;7.75;2.50;;;;;;;14.69;61.69;101479.22;5002319;28;20026;-68
2022/09/02 05:21:58;;;;;;;6.55;2.00;;;;;;;14.71;61.91;101475.13;5004470;28;20026;-68
2022/09/02 05:24:24;;;;;;;5.13;1.98;;;;;;;14.75;61.67;101475.47;5002989;28;20057;-68
2022/09/02 05:26:49;;;;;;;4.40;2.45;;;;;;;14.81;61.69;101474.53;5020594;28;20034;-68
2022/09/02 05:29:17;;;;;;;4.90;1.95;;;;;;;14.83;61.39;101477.88;5026391;28;20033;-68
2022/09/02 05:31:43;;;;;;;7.72;2.40;;;;;;;14.87;61.56;101481.00;5007063;28;20041;-68
2022/09/02 05:34:08;;;;;;;5.07;2.20;;;;;;;14.89;61.53;101479.66;5013387;28;20034;-67
2022/09/02 05:36:34;;;;;;;5.07;2.30;;;;;;;14.95;61.36;101483.38;5003237;28;20029;-67
2022/09/02 05:39:00;;;;;;;7.00;2.58;;;;;;;14.94;61.42;101479.78;5016186;28;20171;-68
2022/09/02 05:41:26;;;;;;;7.60;2.60;;;;;;;14.98;61.34;101475.44;5025192;28;20022;-68
2022/09/02 05:43:55;;;;;;;5.35;2.40;;;;;;;15.01;61.95;101474.13;5025792;28;20036;-68
2022/09/02 05:46:23;;;;;;;4.30;2.20;;;;;;;15.06;61.75;101477.00;5011691;28;20388;-68
2022/09/02 05:49:05;;;;;;;7.75;2.80;;;;;;;15.07;61.63;101475.06;5017549;28;20164;-68
2022/09/02 05:51:40;;;;;;;4.38;2.10;;;;;;;15.12;61.56;101477.94;5025080;28;20075;-68
2022/09/02 05:54:06;;;;;;;5.93;2.20;;;;;;;15.15;61.46;101481.03;5023487;28;20041;-67
2022/09/02 05:56:32;;;;;;;4.63;2.30;;;;;;;15.20;61.54;101483.06;5006922;28;20025;-67
2022/09/02 05:58:57;;;;;;;5.25;2.30;;;;;;;15.24;61.37;101481.47;5024879;28;20033;-68
2022/09/02 06:01:23;;;;;;;5.68;2.50;;;;;;;15.28;61.65;101472.44;5006577;28;20033;-67
2022/09/02 06:03:51;;;;;;;6.82;2.22;;;;;;;15.32;61.06;101472.81;5005567;28;20136;-68
2022/09/02 06:06:18;;;;;;;7.45;2.10;;;;;;;15.38;61.49;101477.34;5012077;28;20030;-68
2022/09/02 06:08:44;;;;;;;4.85;2.50;;;;;;;15.40;61.34;101475.16;5004968;28;20185;-68
2022/09/02 06:11:11;;;;;;;4.60;2.53;;;;;;;15.47;60.64;101475.03;5001665;28;20022;-68
2022/09/02 06:13:39;;;;;;;7.00;2.40;;;;;;;15.50;61.11;101474.50;5003322;28;20433;-68
2022/09/02 06:16:07;;;;;;;6.00;2.38;;;;;;;15.54;61.24;101470.16;5007893;28;20325;-68
2022/09/02 06:18:33;;;;;;;6.10;2.40;;;;;;;15.57;61.07;101473.28;5004841;28;20080;-67
2022/09/02 06:20:58;;;;;;;6.30;2.00;;;;;;;15.64;60.93;101480.63;5004865;28;20029;-68
2022/09/02 06:23:24;;;;;;;8.00;2.30;;;;;;;15.66;60.41;101471.00;4999732;28;20018;-68
2022/09/02 06:25:49;;;;;;;5.63;2.15;;;;;;;15.70;60.72;101476.84;5004549;28;20030;-68
2022/09/02 06:28:15;;;;;;;4.53;2.08;;;;;;;15.70;60.95;101474.06;5004666;28;20022;-68
2022/09/02 06:30:42;;;;;;;9.60;2.42;;;;;;;15.73;60.22;101473.59;5003462;28;20084;-67
2022/09/02 06:33:09;;;;;;;5.57;2.20;;;;;;;15.78;60.11;101479.22;5003710;28;20018;-68
2022/09/02 06:35:40;;;;;;;4.32;1.90;;;;;;;15.84;60.25;101467.13;5018531;28;20026;-68
2022/09/02 06:38:06;;;;;;;3.95;1.80;;;;;;;15.89;59.80;101464.44;4998368;28;20128;-67
2022/09/02 06:40:31;;;;;;;3.60;1.77;;;;;;;15.94;59.76;101475.63;5002073;28;20030;-68
2022/09/02 06:42:57;;;;;;;4.68;1.92;;;;;;;15.99;59.84;101463.78;4999828;28;20092;-68
2022/09/02 06:45:25;;;;;;;7.32;2.60;;;;;;;16.05;60.10;101469.16;5024169;28;20041;-67
2022/09/02 06:47:52;;;;;;;;;;;;;;;16.18;58.86;101472.69;5023335;28;20025;-67
2022/09/02 06:50:18;;;;;;;5.90;2.15;;;;;;;16.18;59.50;101456.06;5024470;28;19913;-67
2022/09/02 06:52:43;;;;;;;5.35;2.08;;;;;;;16.22;59.33;101463.63;5017468;28;20425;-67
2022/09/02 06:55:09;;;;;;;5.30;2.40;;;;;;;16.30;58.88;101460.41;5003137;28;20064;-68
2022/09/02 06:57:36;;;;;;;5.13;2.15;;;;;;;16.35;59.56;101462.41;5003259;28;20469;-68
2022/09/02 07:00:06;;;;;;;5.20;2.10;;;;;;;16.41;59.15;101461.38;5012105;28;20128;-68
2022/09/02 07:02:31;;;;;;;8.38;2.28;;;;;;;16.46;58.67;101458.69;5008307;28;20049;-68
2022/09/02 07:05:09;;;;;;;5.03;2.15;;;;;;;16.53;58.79;101459.38;4988483;28;20123;-68
2022/09/02 07:07:36;;;;;;;4.50;2.05;;;;;;;16.58;59.22;101456.66;5001459;28;20032;-68
2022/09/02 07:10:02;;;;;;;5.47;2.28;;;;;;;16.66;58.90;101452.59;5005312;28;20069;-68
2022/09/02 07:12:27;;;;;;;8.27;2.45;;;;;;;16.73;58.27;101455.25;5007244;28;20018;-68
2022/09/02 07:14:53;;;;;;;7.47;2.42;;;;;;;16.78;57.89;101445.03;5000366;28;20034;-68
2022/09/02 07:17:20;;;;;;;5.82;1.88;;;;;;;16.89;57.99;101446.00;5000691;28;20018;-68
2022/09/02 07:19:47;;;;;;;6.85;2.22;;;;;;;16.95;57.85;101449.69;4995522;28;20022;-68
2022/09/02 07:22:12;;;;;;;5.45;2.10;;;;;;;17.01;57.79;101452.25;4998211;28;20035;-72
2022/09/02 07:24:38;;;;;;;6.93;2.30;;;;;;;17.11;57.54;101452.38;4996630;28;20030;-69
2022/09/02 07:27:04;;;;;;;6.95;2.40;;;;;;;17.19;58.01;101453.88;4993341;28;20140;-70
2022/09/02 07:29:30;;;;;;;7.53;2.50;;;;;;;17.28;57.51;101452.28;5023934;28;20026;-69
2022/09/02 07:31:57;;;;;;;10.38;2.80;;;;;;;17.36;57.68;101457.38;5009776;28;20033;-69
2022/09/02 07:34:22;;;;;;;7.18;2.40;;;;;;;17.47;56.67;101451.94;5004504;28;20117;-70
2022/09/02 07:36:48;;;;;;;6.28;2.13;;;;;;;17.54;56.94;101444.25;5002029;28;20113;-70
2022/09/02 07:39:15;;;;;;;5.63;2.25;;;;;;;17.62;56.44;101446.53;5003645;28;20021;-70
2022/09/02 07:41:42;;;;;;;6.07;2.60;;;;;;;17.67;56.01;101446.56;5002117;28;20095;-69
2022/09/02 07:44:07;;;;;;;5.25;2.60;;;;;;;17.80;56.18;101446.19;5003127;28;20029;-70
2022/09/02 07:46:34;;;;;;;5.97;2.35;;;;;;;17.87;55.92;101441.22;5003433;28;20017;-70
2022/09/02 07:49:02;;;;;;;4.75;2.50;;;;;;;17.92;56.13;101447.94;5003126;28;20044;-69
2022/09/02 07:51:28;;;;;;;4.05;2.10;;;;;;;18.00;55.35;101444.69;5001345;28;20080;-70
2022/09/02 07:53:53;;;;;;;7.72;2.50;;;;;;;18.05;55.24;101447.50;5001397;28;20038;-69
2022/09/02 07:56:18;;;;;;;6.35;2.58;;;;;;;18.12;55.54;101448.09;5003032;28;20028;-70
2022/09/02 07:58:44;;;;;;;5.18;2.53;;;;;;;18.18;55.48;101447.03;5001700;28;20033;-70
2022/09/02 08:01:12;;;;;;;7.20;2.75;;;;;;;18.23;54.96;101449.84;5003686;28;20157;-70
2022/09/02 08:03:39;;;;;;;6.35;2.83;;;;;;;18.29;54.39;101453.50;5001081;28;20048;-70
2022/09/02 08:06:05;;;;;;;7.53;2.92;;;;;;;18.32;54.81;101448.25;4999546;28;20018;-69
2022/09/02 08:08:31;;;;;;;5.82;2.75;;;;;;;18.33;54.94;101446.28;5002101;28;20030;-69
2022/09/02 08:10:58;;;;;;;7.40;3.08;;;;;;;18.35;55.28;101446.88;5000556;28;20068;-70
2022/09/02 08:13:24;;;;;;;5.80;2.60;;;;;;;18.46;55.34;101439.44;5001073;28;20030;-69
2022/09/02 08:15:49;;;;;;;6.38;2.80;;;;;;;18.58;55.33;101440.88;5001435;28;20029;-69
2022/09/02 08:18:15;;;;;;;7.50;2.97;;;;;;;18.69;55.48;101435.41;5003361;28;20041;-69
2022/09/02 08:20:40;;;;;;;5.53;2.70;;;;;;;18.84;55.91;101439.09;5000089;28;20037;-69
2022/09/02 08:23:07;;;;;;;7.43;2.50;;;;;;;18.98;54.18;101431.09;5001574;28;20018;-70
2022/09/02 08:25:33;;;;;;;6.10;2.65;;;;;;;19.16;53.94;101429.78;4999667;28;20121;-70
2022/09/02 08:27:59;;;;;;;5.35;2.67;;;;;;;19.31;53.69;101427.03;5017480;28;20026;-70
2022/09/02 08:30:24;;;;;;;5.85;2.55;;;;;;;19.46;53.05;101423.41;5002004;28;20384;-69
2022/09/02 08:32:50;;;;;;;6.32;2.63;;;;;;;19.56;53.07;101422.59;5002632;28;20129;-70
2022/09/02 08:35:15;;;;;;;6.22;2.80;;;;;;;19.75;52.75;101422.91;4998618;28;20398;-70
2022/09/02 08:37:41;;;;;;;7.60;2.80;;;;;;;19.90;52.58;101417.34;5001054;28;20073;-71
2022/09/02 08:40:12;;;;;;;6.23;2.60;;;;;;;20.03;52.08;101418.75;5002518;28;20030;-71
2022/09/02 08:42:44;;;;;;;7.78;2.53;;;;;;;20.19;51.70;101414.81;5001590;28;20299;-71
2022/09/02 08:45:36;;;;;;;5.68;2.55;;;;;;;20.36;51.33;101414.50;5000224;28;20053;-71
2022/09/02 08:48:20;;;;;;;7.22;2.55;;;;;;;20.52;51.07;101415.31;5002967;28;20030;-71
2022/09/02 08:50:47;;;;;;;6.45;2.55;;;;;;;20.61;51.07;101408.03;4998657;28;20041;-71
2022/09/02 08:53:31;;;;;;;7.30;2.72;;;;;;;20.76;50.27;101413.56;4998844;28;20189;-71
2022/09/02 08:55:58;;;;;;;10.50;2.60;;;;;;;20.80;50.71;101416.63;5000816;28;20033;-71
2022/09/02 08:58:38;;;;;;;6.82;2.58;;;;;;;20.92;50.69;101414.31;5003134;28;20068;-71
2022/09/02 09:01:08;;;;;;;5.57;2.30;;;;;;;21.01;50.45;101409.00;5001208;28;20432;-70
2022/09/02 09:03:50;;;;;;;8.93;2.50;;;;;;;21.09;50.52;101411.19;4982717;28;20464;-71
2022/09/02 09:06:33;;;;;;;7.88;2.67;;;;;;;21.24;50.96;101413.91;4981999;28;20374;-71
2022/09/02 09:09:27;;;;;;;7.80;2.40;;;;;;;21.34;50.48;101418.59;4988815;28;20068;-71
2022/09/02 09:12:20;;;;;;;6.63;2.50;;;;;;;21.45;49.51;101414.63;5000342;28;20042;-71
2022/09/02 09:15:13;;;;;;;6.63;2.67;;;;;;;21.51;49.22;101413.47;5001956;28;20030;-70
2022/09/02 09:17:50;;;;;;;5.82;2.60;;;;;;;21.63;49.55;101419.50;5001920;28;20567;-71
2022/09/02 09:20:19;;;;;;;7.93;2.70;;;;;;;21.68;48.54;101413.88;5001143;28;20117;-71
2022/09/02 09:22:47;;;;;;;5.75;2.40;;;;;;;21.81;48.62;101408.75;4998743;28;20057;-72
2022/09/02 09:25:15;;;;;;;7.13;2.80;;;;;;;21.93;49.23;101409.19;5000161;28;20088;-72
2022/09/02 09:27:40;;;;;;;;;;;;;;;22.13;49.73;101409.03;5002507;28;20379;-70
2022/09/02 09:30:08;;;;;;;5.45;2.30;;;;;;;22.17;49.05;101412.94;5002246;28;19918;-71
2022/09/02 09:32:41;;;;;;;7.22;2.90;;;;;;;22.23;47.84;101405.31;5001150;28;20472;-71
2022/09/02 09:35:09;;;;;;;6.07;2.92;;;;;;;22.39;48.38;101411.56;5001786;28;20038;-71
2022/09/02 09:37:40;;;;;;;4.90;2.70;;;;;;;22.49;48.00;101405.88;5000787;28;20033;-71
2022/09/02 09:40:20;;;;;;;5.53;3.00;;;;;;;22.65;48.32;101398.94;5000937;28;20379;-70
2022/09/02 09:42:54;;;;;;;5.38;2.95;;;;;;;22.76;47.57;101405.28;4982004;28;20043;-71
2022/09/02 09:45:33;;;;;;;8.50;3.60;;;;;;;22.97;46.16;101400.28;4999889;28;20065;-71
2022/09/02 09:48:16;;;;;;;6.97;3.65;;;;;;;23.25;46.09;101395.66;5000646;28;20034;-71
2022/09/02 09:50:46;;;;;;;7.47;3.80;;;;;;;23.34;45.67;101384.63;4997695;28;20546;-71
2022/09/02 09:53:22;;;;;;;6.65;3.38;;;;;;;23.50;46.18;101389.66;5002205;28;20029;-70
2022/09/02 09:55:56;;;;;;;7.35;3.28;;;;;;;23.69;45.35;101388.84;4999344;28;20151;-71
2022/09/02 09:58:26;;;;;;;6.10;3.63;;;;;;;23.85;43.39;101392.22;5001871;28;20383;-71
2022/09/02 10:00:55;;;;;;;6.88;3.10;;;;;;;24.08;43.50;101385.66;5001853;28;20495;-72
2022/09/02 10:03:25;;;;;;;6.43;3.17;;;;;;;24.23;43.10;101385.38;5001863;28;20308;-72
2022/09/02 10:06:15;;;;;;;7.03;3.00;;;;;;;24.52;42.78;101379.47;4999951;28;20023;-67
2022/09/02 10:08:51;;;;;;;7.95;3.53;;;;;;;24.99;41.77;101382.13;4981916;28;20062;-71
2022/09/02 10:11:23;;;;;;;7.00;3.40;;;;;;;25.25;41.14;101380.47;4982430;28;20034;-70
2022/09/02 10:13:48;;;;;;;7.20;3.20;;;;;;;25.85;38.92;101373.66;4998409;28;20030;-70
2022/09/02 10:16:28;;;;;;;6.45;3.22;;;;;;;26.62;39.26;101378.06;5000739;28;20370;-70
2022/09/02 10:19:05;;;;;;;8.52;4.00;;;;;;;27.49;36.01;101367.75;5003335;28;20038;-71
2022/09/02 10:21:58;;;;;;;7.47;3.83;;;;;;;28.09;35.49;101369.69;4997919;28;20027;-70
2022/09/02 10:24:31;;;;;;;8.10;3.28;;;;;;;28.37;35.05;101367.25;4985363;28;20126;-70
2022/09/02 10:26:59;;;;;;;7.50;3.15;;;;;;;28.29;33.92;101356.81;4989725;28;20029;-71
2022/09/02 10:29:24;;;;;;;;;;;;;;;29.12;36.33;101356.22;4996696;28;20038;-70
2022/09/02 10:32:25;;;;;;;8.18;2.95;;;;;;;29.52;32.40;101352.06;5005047;28;19988;-71
2022/09/02 10:35:00;;;;;;;7.95;3.60;;;;;;;29.79;32.28;101357.13;4945354;28;20035;-70
2022/09/02 10:37:40;;;;;;;8.05;3.55;;;;;;;29.90;31.47;101358.34;4993270;28;20039;-70
2022/09/02 10:40:12;;;;;;;8.27;3.67;;;;;;;30.20;31.27;101350.53;4995738;28;20030;-71
2022/09/02 10:42:59;;;;;;;7.70;3.65;;;;;;;30.56;31.25;101346.06;5004386;28;20844;-71
2022/09/02 10:45:46;;;;;;;10.40;3.75;;;;;;;30.43;30.84;101342.41;5004843;28;20072;-71
2022/09/02 10:48:17;;;;;;;6.70;3.33;;;;;;;30.37;31.30;101343.84;5003929;28;20053;-71
2022/09/02 10:50:54;;;;;;;7.57;2.75;;;;;;;30.42;30.25;101340.78;5003840;28;20037;-70
2022/09/02 10:53:36;;;;;;;7.38;2.75;;;;;;;30.30;29.08;101346.41;5004289;28;20514;-71
2022/09/02 10:56:11;;;;;;;6.97;2.40;;;;;;;30.16;29.63;101343.09;5003400;28;20030;-70
2022/09/02 10:58:44;;;;;;;5.72;1.65;;;;;;;30.29;29.12;101343.94;5002051;28;20026;-70
2022/09/02 11:01:34;;;;;;;5.05;1.52;;;;;;;30.64;28.60;101332.97;5002256;28;20037;-70
2022/09/02 11:04:17;;;;;;;5.40;1.90;;;;;;;31.31;27.73;101334.28;5003883;28;20634;-70
2022/09/02 11:06:46;;;;;;;4.85;2.10;;;;;;;31.72;25.48;101320.84;4997968;28;20100;-71
2022/09/02 11:09:19;;;;;;;4.05;1.50;;;;;;;32.51;25.50;101318.13;5004626;28;20108;-71
2022/09/02 11:11:59;;;;;;;5.07;1.50;;;;;;;32.48;25.81;101333.06;4998452;28;20052;-70
2022/09/02 11:14:52;;;;;;;4.28;1.40;;;;;;;32.92;24.57;101321.53;4992487;28;20030;-71
2022/09/02 11:17:28;;;;;;;4.68;1.60;;;;;;;34.14;24.07;101322.84;5000749;28;20026;-71
2022/09/02 11:20:37;;;;;;;1.88;1.00;;;;;;;34.69;22.28;101313.97;4995648;28;20101;-70
2022/09/02 11:23:19;;;;;;;4.25;1.20;;;;;;;34.64;21.67;101314.31;4992663;28;20026;-72
2022/09/02 11:26:22;;;;;;;3.25;1.40;;;;;;;34.14;21.89;101308.56;5002895;28;20021;-70
2022/09/02 11:29:05;;;;;;;4.63;1.77;;;;;;;33.08;22.19;101298.72;4994955;28;20046;-70
2022/09/02 11:31:37;;;;;;;4.38;1.45;;;;;;;31.83;23.19;101299.28;4994731;28;20122;-71
2022/09/02 11:34:25;;;;;;;3.05;1.10;;;;;;;30.88;25.04;101300.94;4995297;28;20037;-70
2022/09/02 11:36:51;;;;;;;5.38;1.33;;;;;;;30.03;24.59;101298.91;4993124;28;20378;-69